Time;durP1;ratioP1;P1;durP2;ratioP2;P2;SDS_P1;SDS_P2;PMS_P1;PMS_P2;Temp;Humidity;BMP_temperature;BMP_pressure;BME280_temperature;BME280_humidity;BME280_pressure;Samples;Min_cycle;Max_cycle;Signal;HPM_P1;HPM_P2
2023/03/31 00:05:16;;;;;;;4.73;2.50;;;;;;;11.17;100.00;97303.06;18281562;32;20066;-57
2023/03/31 00:15:19;;;;;;;9.53;3.07;;;;;;;11.06;100.00;97301.53;18304106;32;20101;-56
2023/03/31 00:25:22;;;;;;;3.43;2.30;;;;;;;11.01;100.00;97336.72;18305113;32;20070;-57
2023/03/31 00:35:24;;;;;;;4.03;2.10;;;;;;;11.00;100.00;97257.47;18305087;32;20070;-55
2023/03/31 00:45:29;;;;;;;3.13;2.17;;;;;;;10.85;100.00;97217.81;18304279;32;20399;-57
2023/03/31 00:55:35;;;;;;;;;;;;;;;10.74;100.00;97204.66;18303945;32;20450;-57
2023/03/31 01:05:43;;;;;;;3.93;2.20;;;;;;;10.62;100.00;97213.13;18289616;32;19945;-57
2023/03/31 01:15:46;;;;;;;3.00;1.97;;;;;;;10.48;100.00;97202.97;18302788;32;20053;-57
2023/03/31 01:25:55;;;;;;;3.13;2.30;;;;;;;10.36;100.00;97182.75;18288140;32;20458;-56
2023/03/31 01:36:42;;;;;;;2.77;1.77;;;;;;;10.30;100.00;97192.75;18301717;32;20088;-56
2023/03/31 01:47:01;;;;;;;3.50;1.97;;;;;;;10.21;100.00;97167.41;18141805;32;20046;-56
2023/03/31 01:57:39;;;;;;;3.03;1.90;;;;;;;10.15;100.00;97129.66;18301225;32;20101;-55
2023/03/31 02:08:08;;;;;;;3.67;2.00;;;;;;;10.05;100.00;97067.56;17979900;33;20068;-57
2023/03/31 02:18:16;;;;;;;3.63;2.00;;;;;;;9.97;100.00;97011.47;17980763;32;20448;-56
2023/03/31 02:28:22;;;;;;;3.93;2.10;;;;;;;9.90;100.00;97003.69;17966966;33;20119;-57
2023/03/31 02:38:25;;;;;;;3.40;1.80;;;;;;;9.83;100.00;96939.19;18105296;32;20062;-57
2023/03/31 02:48:33;;;;;;;2.33;1.83;;;;;;;9.82;100.00;96904.38;18298320;32;20129;-57
2023/03/31 02:58:56;;;;;;;2.10;1.80;;;;;;;9.84;100.00;96878.72;18297775;32;20072;-57
2023/03/31 03:09:16;;;;;;;4.53;3.07;;;;;;;9.63;100.00;96836.78;18297409;32;20050;-57
2023/03/31 03:19:21;;;;;;;7.17;3.43;;;;;;;9.72;100.00;96829.69;18296809;32;20369;-57
2023/03/31 03:29:23;;;;;;;7.23;3.53;;;;;;;9.87;100.00;96755.03;18282335;32;20050;-57
2023/03/31 03:39:26;;;;;;;9.40;2.73;;;;;;;9.92;100.00;96706.38;18295530;32;20058;-56
2023/03/31 03:49:28;;;;;;;5.27;2.83;;;;;;;9.96;100.00;96708.22;18294682;32;20081;-57
2023/03/31 03:59:31;;;;;;;4.20;2.40;;;;;;;10.00;100.00;96676.00;18281021;32;20094;-57
2023/03/31 04:09:33;;;;;;;5.63;2.67;;;;;;;9.96;100.00;96634.47;18294415;32;20073;-57
2023/03/31 04:19:37;;;;;;;5.63;2.53;;;;;;;10.07;100.00;96611.66;18294011;32;20110;-56
2023/03/31 04:29:41;;;;;;;5.40;2.30;;;;;;;10.07;100.00;96613.53;18279597;32;20519;-57
2023/03/31 04:39:45;;;;;;;5.07;2.00;;;;;;;10.06;100.00;96601.13;18293310;32;20509;-57
2023/03/31 04:49:48;;;;;;;5.65;1.85;;;;;;;10.30;100.00;96634.25;18278573;32;20050;-57
2023/03/31 04:59:50;;;;;;;3.57;1.73;;;;;;;10.95;100.00;96627.28;18300021;32;20080;-56
2023/03/31 05:09:53;;;;;;;5.20;2.07;;;;;;;11.76;100.00;96634.13;18303245;32;20077;-57
2023/03/31 05:19:55;;;;;;;5.23;2.37;;;;;;;12.14;100.00;96624.94;18302391;32;20050;-57
2023/03/31 05:29:58;;;;;;;4.73;1.87;;;;;;;12.17;100.00;96610.78;18288267;32;20064;-58
2023/03/31 05:40:00;;;;;;;2.73;1.87;;;;;;;11.52;100.00;96585.59;18301616;32;20080;-58
2023/03/31 05:50:07;;;;;;;3.20;2.17;;;;;;;11.15;100.00;96582.81;18287736;32;20379;-58
2023/03/31 06:00:14;;;;;;;3.97;2.23;;;;;;;10.94;100.00;96584.31;18300496;32;20054;-57
2023/03/31 06:10:17;;;;;;;9.53;2.80;;;;;;;10.89;100.00;96606.03;18285583;32;20054;-57
2023/03/31 06:20:20;;;;;;;4.00;1.90;;;;;;;11.34;100.00;96682.06;18299240;32;20054;-57
2023/03/31 06:30:29;;;;;;;1.30;0.80;;;;;;;12.62;100.00;96734.72;18299045;32;20105;-56
2023/03/31 06:40:32;;;;;;;3.20;1.13;;;;;;;11.28;100.00;96721.16;18298625;32;20054;-54
2023/03/31 06:50:40;;;;;;;2.60;1.27;;;;;;;10.05;100.00;96705.66;18298115;32;20061;-54
2023/03/31 07:00:44;;;;;;;1.43;0.97;;;;;;;9.65;100.00;96721.28;18283832;32;20085;-56
2023/03/31 07:10:49;;;;;;;;;;;;;;;9.80;100.00;96723.78;18297406;32;20050;-52
2023/03/31 07:20:51;;;;;;;5.63;1.80;;;;;;;10.62;100.00;96748.97;18283207;32;20234;-51
2023/03/31 07:30:54;;;;;;;5.40;1.90;;;;;;;10.48;100.00;96775.91;18295645;32;20054;-55
2023/03/31 07:40:57;;;;;;;9.03;1.90;;;;;;;10.13;100.00;96753.63;18268957;32;20053;-55
2023/03/31 07:51:11;;;;;;;5.37;1.57;;;;;;;10.66;100.00;96759.97;18282987;32;20062;-55
2023/03/31 08:01:17;;;;;;;5.00;1.90;;;;;;;11.19;100.00;96756.19;18294772;32;20054;-54
2023/03/31 08:11:20;;;;;;;3.73;1.50;;;;;;;11.67;100.00;96769.41;18294412;32;20120;-56
2023/03/31 08:21:23;;;;;;;4.50;1.27;;;;;;;12.12;100.00;96792.44;18280372;32;20065;-55
2023/03/31 08:31:27;;;;;;;5.03;1.48;;;;;;;12.38;100.00;96768.31;18297619;32;20050;-55
2023/03/31 08:41:36;;;;;;;;;;;;;;;12.84;100.00;96775.44;18290116;32;20133;-55
2023/03/31 08:51:43;;;;;;;5.00;1.30;;;;;;;13.17;100.00;96793.41;18290327;32;20319;-56
2023/03/31 09:02:38;;;;;;;4.97;1.13;;;;;;;13.33;100.00;96785.69;18303880;32;20378;-55
2023/03/31 09:13:12;;;;;;;2.50;0.80;;;;;;;12.99;100.00;96784.34;18219328;32;20070;-55
2023/03/31 09:23:20;;;;;;;2.58;0.82;;;;;;;13.63;96.52;96772.47;18302628;32;20437;-53
2023/03/31 09:33:32;;;;;;;5.07;1.00;;;;;;;13.56;100.00;96765.56;18301839;32;20088;-56
2023/03/31 09:43:35;;;;;;;3.37;1.10;;;;;;;14.86;99.63;96758.09;18300588;32;20103;-57
2023/03/31 09:53:41;;;;;;;3.85;0.80;;;;;;;15.08;78.62;96756.34;18300754;32;20069;-57
2023/03/31 10:03:54;;;;;;;3.37;0.85;;;;;;;15.24;82.87;96716.59;18300657;32;20450;-56
2023/03/31 10:14:12;;;;;;;4.43;1.10;;;;;;;15.66;75.32;96698.84;18299949;32;20099;-57
2023/03/31 10:24:18;;;;;;;5.53;1.20;;;;;;;16.39;71.04;96686.91;18299676;32;20396;-57
2023/03/31 10:34:23;;;;;;;4.45;1.00;;;;;;;17.07;59.52;96670.28;18298691;32;20058;-58
2023/03/31 10:44:36;;;;;;;6.32;1.40;;;;;;;17.93;55.91;96633.28;18298290;32;20476;-56
2023/03/31 10:54:46;;;;;;;1.93;0.83;;;;;;;18.54;53.80;96651.53;18297263;32;20050;-58
2023/03/31 11:04:52;;;;;;;2.72;1.08;;;;;;;18.65;49.88;96624.44;18297327;32;20050;-58
2023/03/31 11:15:11;;;;;;;3.35;0.90;;;;;;;18.37;43.05;96613.47;18297343;32;20054;-58
2023/03/31 11:25:13;;;;;;;6.20;0.98;;;;;;;18.21;45.82;96613.41;18296540;32;20088;-57
2023/03/31 11:35:31;;;;;;;10.13;1.30;;;;;;;18.59;42.08;96643.03;18231924;32;20083;-57
2023/03/31 11:45:41;;;;;;;3.30;0.57;;;;;;;16.81;45.43;96730.56;18232594;32;20074;-56
2023/03/31 11:55:48;;;;;;;2.97;0.60;;;;;;;12.78;100.00;96735.19;18232972;32;20464;-57
2023/03/31 12:05:56;;;;;;;1.87;0.37;;;;;;;11.97;100.00;96690.59;18231604;32;20089;-57
2023/03/31 12:16:14;;;;;;;2.50;0.40;;;;;;;13.05;100.00;96669.13;18230364;32;20066;-57
2023/03/31 12:26:37;;;;;;;2.42;0.70;;;;;;;14.29;100.00;96641.25;18231143;32;20054;-56
2023/03/31 12:36:45;;;;;;;3.10;0.95;;;;;;;14.78;100.00;96600.28;18292653;32;20099;-56
2023/03/31 12:47:27;;;;;;;3.70;0.70;;;;;;;14.34;100.00;96573.91;18279749;32;20129;-56
2023/03/31 12:57:30;;;;;;;5.68;1.15;;;;;;;15.46;97.70;96551.34;18292944;32;20327;-57
2023/03/31 13:07:40;;;;;;;4.40;0.93;;;;;;;16.81;65.46;96528.56;18292195;32;20347;-57
2023/03/31 13:17:58;;;;;;;5.68;0.98;;;;;;;18.12;52.77;96547.91;18296148;32;20098;-58
2023/03/31 13:28:16;;;;;;;3.97;1.10;;;;;;;19.21;55.90;96535.94;18288202;32;20061;-60
2023/03/31 13:38:53;;;;;;;3.83;1.20;;;;;;;18.38;59.25;96561.13;18301687;32;20513;-57
2023/03/31 13:48:56;;;;;;;2.75;0.70;;;;;;;16.75;53.45;96543.59;18301155;32;20090;-57
2023/03/31 13:59:22;;;;;;;1.98;0.50;;;;;;;16.25;51.94;96584.34;18300620;32;20403;-56
2023/03/31 14:09:25;;;;;;;3.77;0.40;;;;;;;14.45;64.50;96743.00;18300415;32;20380;-58
2023/03/31 14:19:57;;;;;;;1.03;0.40;;;;;;;11.05;100.00;96728.31;18299572;32;20066;-56
2023/03/31 14:30:06;;;;;;;2.57;0.57;;;;;;;9.94;100.00;96634.00;18298228;32;20177;-56
2023/03/31 14:40:15;;;;;;;1.73;0.30;;;;;;;10.10;100.00;96608.38;18272624;32;20054;-56
2023/03/31 14:50:19;;;;;;;0.87;0.13;;;;;;;12.16;100.00;96601.84;18284532;32;20050;-55
2023/03/31 15:00:28;;;;;;;1.37;0.20;;;;;;;12.19;100.00;96619.41;18297786;32;20468;-57
2023/03/31 15:10:37;;;;;;;0.90;0.30;;;;;;;11.93;100.00;96643.53;18297522;32;20219;-57
2023/03/31 15:20:41;;;;;;;1.33;0.37;;;;;;;11.69;100.00;96587.72;18296844;32;20153;-57
2023/03/31 15:30:48;;;;;;;3.37;0.40;;;;;;;11.94;100.00;96561.97;18282731;32;20060;-56
2023/03/31 15:41:16;;;;;;;1.03;0.40;;;;;;;11.63;100.00;96523.94;18284215;32;20062;-56
2023/03/31 15:51:32;;;;;;;1.67;0.63;;;;;;;12.18;100.00;96558.19;18295484;32;20046;-56
2023/03/31 16:01:43;;;;;;;3.47;0.70;;;;;;;13.34;88.69;96580.97;18295080;32;20115;-56
2023/03/31 16:11:55;;;;;;;4.80;0.73;;;;;;;13.20;82.02;96591.94;18294705;32;20047;-57
2023/03/31 16:22:00;;;;;;;3.55;0.75;;;;;;;13.31;82.50;96611.47;18294701;32;20061;-57
2023/03/31 16:32:12;;;;;;;2.22;0.45;;;;;;;13.88;84.01;96616.94;18293457;32;20072;-57
2023/03/31 16:42:16;;;;;;;1.77;0.57;;;;;;;13.99;89.61;96612.00;18293435;32;20062;-57
2023/03/31 16:52:19;;;;;;;2.77;0.57;;;;;;;13.53;83.25;96610.63;18297426;32;20339;-57
2023/03/31 17:02:21;;;;;;;6.30;1.05;;;;;;;13.10;85.15;96614.75;18303740;32;20117;-58
2023/03/31 17:12:24;;;;;;;2.93;0.60;;;;;;;13.05;85.37;96618.38;18303322;32;20130;-58
2023/03/31 17:22:27;;;;;;;3.47;0.60;;;;;;;12.67;86.96;96615.28;18288823;32;20347;-56
2023/03/31 17:32:30;;;;;;;1.17;0.50;;;;;;;12.41;88.34;96674.75;18301815;32;20050;-57
2023/03/31 17:42:33;;;;;;;0.50;0.20;;;;;;;11.12;100.00;96670.00;18288174;32;20069;-57
2023/03/31 17:52:37;;;;;;;1.07;0.20;;;;;;;10.41;100.00;96656.56;18287722;32;20073;-56
2023/03/31 18:02:41;;;;;;;0.75;0.10;;;;;;;9.84;100.00;96633.03;18286479;32;20097;-56
2023/03/31 18:12:45;;;;;;;0.90;0.10;;;;;;;9.50;100.00;96634.00;18300119;32;20097;-56
2023/03/31 18:22:48;;;;;;;1.67;0.40;;;;;;;9.21;100.00;96669.13;18285911;32;20358;-56
2023/03/31 18:32:52;;;;;;;0.50;0.20;;;;;;;8.91;100.00;96689.09;18299417;32;20178;-57
2023/03/31 18:42:55;;;;;;;2.10;0.40;;;;;;;8.74;100.00;96703.81;18298682;32;20454;-56
2023/03/31 18:52:58;;;;;;;1.77;0.30;;;;;;;8.92;100.00;96723.03;18284781;32;20054;-56
2023/03/31 19:03:01;;;;;;;1.60;0.37;;;;;;;9.15;100.00;96721.50;18297752;32;20089;-57
2023/03/31 19:13:05;;;;;;;2.17;0.57;;;;;;;9.23;100.00;96720.88;18296932;32;20438;-56
2023/03/31 19:23:08;;;;;;;3.60;0.63;;;;;;;9.29;100.00;96729.72;18283551;32;20065;-57
2023/03/31 19:33:11;;;;;;;1.17;0.47;;;;;;;9.34;100.00;96724.28;18295849;32;20459;-57
2023/03/31 19:43:20;;;;;;;2.03;0.70;;;;;;;9.34;100.00;96721.59;18282104;32;20088;-57
2023/03/31 19:53:23;;;;;;;5.00;0.57;;;;;;;9.11;100.00;96729.38;18295522;32;20070;-57
2023/03/31 20:03:26;;;;;;;4.27;0.80;;;;;;;9.09;100.00;96714.56;18294871;32;20105;-57
2023/03/31 20:13:31;;;;;;;3.23;0.50;;;;;;;9.07;100.00;96698.66;18280790;32;20050;-58
2023/03/31 20:23:35;;;;;;;3.70;0.60;;;;;;;9.08;100.00;96708.34;18294105;32;20062;-56
2023/03/31 20:33:38;;;;;;;2.20;0.57;;;;;;;9.10;100.00;96700.78;18290580;32;20117;-57
2023/03/31 20:43:41;;;;;;;3.97;0.50;;;;;;;9.08;100.00;96697.56;18305125;32;20128;-57
2023/03/31 20:53:47;;;;;;;3.00;0.60;;;;;;;9.16;100.00;96705.03;18304059;32;20088;-58
2023/03/31 21:03:50;;;;;;;4.03;0.70;;;;;;;9.16;100.00;96731.19;18304091;32;20369;-57
2023/03/31 21:13:53;;;;;;;4.37;0.83;;;;;;;9.30;100.00;96726.75;18289120;32;20373;-57
2023/03/31 21:23:56;;;;;;;1.73;0.70;;;;;;;9.40;100.00;96717.75;18288678;32;20476;-57
2023/03/31 21:34:01;;;;;;;1.80;0.60;;;;;;;9.40;100.00;96711.53;18302308;32;20062;-57
2023/03/31 21:44:03;;;;;;;3.43;0.60;;;;;;;9.36;100.00;96718.59;18301641;32;20446;-56
2023/03/31 21:54:06;;;;;;;1.07;0.40;;;;;;;9.24;100.00;96732.50;18301144;32;20058;-57
2023/03/31 22:04:09;;;;;;;1.37;0.37;;;;;;;9.46;100.00;96730.09;18300861;32;20050;-56
2023/03/31 22:14:12;;;;;;;4.13;1.00;;;;;;;9.53;100.00;96734.38;18300186;32;20078;-58
2023/03/31 22:24:15;;;;;;;6.27;0.53;;;;;;;9.47;100.00;96734.41;18286250;32;20045;-58
2023/03/31 22:34:18;;;;;;;2.40;0.80;;;;;;;9.59;100.00;96736.72;18285041;32;20054;-57
2023/03/31 22:44:21;;;;;;;1.80;0.33;;;;;;;9.58;100.00;96813.38;18298512;32;20426;-58
2023/03/31 22:54:23;;;;;;;0.53;0.10;;;;;;;8.66;100.00;96814.87;18297588;32;20390;-58
2023/03/31 23:04:26;;;;;;;0.80;0.20;;;;;;;7.79;100.00;96824.88;18283828;32;20061;-57
2023/03/31 23:14:29;;;;;;;1.67;0.10;;;;;;;7.51;100.00;96828.16;18297314;32;20069;-57
2023/03/31 23:24:32;;;;;;;0.73;0.20;;;;;;;7.21;100.00;96825.22;18297133;32;20074;-57
2023/03/31 23:34:34;;;;;;;0.30;0.10;;;;;;;7.11;100.00;96809.06;18296036;32;20106;-57
2023/03/31 23:44:37;;;;;;;2.33;0.00;;;;;;;7.08;100.00;96801.56;18295960;32;20070;-56
2023/03/31 23:54:39;;;;;;;0.70;0.10;;;;;;;7.04;100.00;96787.03;18295887;32;20149;-57
